Airfield :
LOGIN :

Register | Disclaimer

   EN    FR    IT 

 










Legend :    VFR   Marginal VFR   IFR   Intensive IFR   Very Intensive IFR
Visi :
Ceiling :
>= 8 km
>= 3000ft
5 to 8 km
1000 to 3000 ft
1500m to 5 km
500 to 1000 ft
800 to 1500m
200 to 500 ft
< 800m
< 200 ft
Symbols :   Thunderstorms  Fog  Heavy snow  Heavy precipitations  Wind > 20 kt
SIGMETs :     Misc.  Thunderstorms  Icing  Turbulence  Mountain Waves  Volcanic Ashes







- Airport Elevation : 313 ft
- IATA code : LEH
- Download approach charts


LFOH - Le Havre Octeville

CURRENT METAR :
  • 201600Z AUTO 25021KT 0450 0400 R22/0550N FG VV/// ///TCU 10/09 Q1000 TEMPO 3000 SHRA BKN006 BKN013TCU BECMG 27020G30KT

EXPIRED METARs :
  • 201530Z AUTO 25017KT 7000 1500 OVC002/// ///TCU 09/09 Q1000 TEMPO 3000 SHRA BKN006 BKN013TCU BECMG 27020G30KT
  • 201500Z AUTO 27022G37KT 8000 3600 -RADZ OVC008 10/09 Q0999 TEMPO 3000 SHRA BKN006 BKN013TCU
  • 201430Z AUTO 27017KT 9999 BKN010 OVC016 10/08 Q0999 TEMPO 3000 SHRA BKN006 BKN013TCU BECMG 27020G30KT
  • 201400Z AUTO 27019KT 9999 BKN015 OVC020 10/08 Q0999 TEMPO 27025G40KT 3000 SHRA BKN006 BKN013TCU
  • 201330Z AUTO 27022KT 9999 BKN013 OVC019 10/08 Q0999 TEMPO 27025G40KT 3000 SHRA BKN006 BKN013TCU

TAF AMD TAF LFOH
Valid from the 20 at 12:00 until the 21 at 12:00 UTC


201237Z 2012/2112 27020G30KT 9999 OVC003
BECMG 2012/2014 BKN016
TEMPO 2014/2023 3000 SHRA BKN006 BKN013TCU
PROB30
TEMPO 2012/2016 27025G40KT
FM202300 34012KT 9999 BKN020
BECMG 2102/2105 VRB02KT 4000 RA OVC013
TEMPO 2105/2112 2000 RADZ OVC003
BECMG 2107/2109 15010KT
ATIS : +33 2 35 54 64 93
No reported NOTAMs for that airfield.
2 SIGMETs reported for the Paris FIR (LFFF) :
 
Severe turbulence
LFFF SIGMET 6 VALID 201600/202000 LFPW
LFFF PARIS FIR/UIR SEV TURB FCST WI N4800 W00015 - N5000 W00015 - N5030 E00045 - N4800 E00245 - N4800 W00015 SFC/FL060 STNR WKN=
Severe turbulence
LFFF SIGMET 5 VALID 201300/201700 LFPW
LFFF PARIS FIR/UIR SEV TURB FCST WI N5030 E00045 - N5115 E00200 - N4945 E00515 - N4915 E00415 - N5030 E00045 FL180/310 MOV SE 50KT NC=



MET'MAP, your aeronautical weather chart ! - Copyright ORBIFLY December 2007 - Disclaimer

ORBIFLY MET'MAP TEAM :

Programming & Development : Alexandra Zaïnal
Concept & Development : Baudouin d'Aumeries
Co-Development & Prog : Marc-Olivier Méhu
Technical & hardware support : Manuel Goepfert

Contact : metmap@orbifly.com




SOURCES & CREDITS :

   NOAA